This is the latest recevied weather packets stored in our database for station/object SR1WXW. If no packets are shown the sender has not sent any weather packets the latest 1 day(s).
| Time | Temp. | Humidity | Pressure | Rain* | Wind** | Luminosity | Snow |
|---|---|---|---|---|---|---|---|
| 1836274854 | 13.33° C | 94% | 1013.6 hPa | 0 mm | 1.34 m/s, 180° | - | - |
| 1836274554 | 13.33° C | 94% | 1013.6 hPa | 0 mm | 0.89 m/s, 157° | - | - |
| 1836274404 | 13.33° C | 94% | 1013.6 hPa | 0 mm | 0.89 m/s, 180° | - | - |
| 1836274254 | 13.33° C | 94% | 1013.7 hPa | 0 mm | 0.89 m/s, 180° | - | - |
| 1836273954 | 13.33° C | 94% | 1013.7 hPa | 0 mm | 0.89 m/s, 180° | - | - |
| 1778013480 | 11.11° C | 89% | 1003.9 hPa | 0 mm | 2.24 m/s, 45° | - | - |
| 1778013180 | 11.11° C | 89% | 1003.9 hPa | 0 mm | 0.45 m/s, 0° | - | - |
| 1778012880 | 11.11° C | 89% | 1004 hPa | 0 mm | 0 m/s | - | - |
| 1778012580 | 11.11° C | 89% | 1004.1 hPa | 0 mm | 0 m/s | - | - |
| 1778012281 | 11.11° C | 89% | 1004 hPa | 0 mm | 0.45 m/s, 0° | - | - |
| 1778011981 | 11.11° C | 89% | 1004 hPa | 0 mm | 0 m/s | - | - |
| 1778011680 | 11.11° C | 89% | 1003.9 hPa | 0 mm | 0 m/s | - | - |
| 1778011380 | 11.11° C | 89% | 1004 hPa | 0 mm | 0.89 m/s, 22° | - | - |
| 1778011080 | 11.11° C | 89% | 1004.1 hPa | 0 mm | 0.45 m/s, 0° | - | - |
| 1778010781 | 11.11° C | 89% | 1003.9 hPa | 0 mm | 9.39 m/s, 22° | - | - |
| 1778010481 | 11.11° C | 89% | 1004 hPa | 0 mm | 0 m/s | - | - |
| 1778010181 | 11.11° C | 89% | 1004.1 hPa | 0 mm | 0.89 m/s, 337° | - | - |
| 1778009881 | 11.11° C | 89% | 1004.1 hPa | 0 mm | 0 m/s | - | - |
| 1778009581 | 11.11° C | 88% | 1004.2 hPa | 0 mm | 0 m/s | - | - |
| 1778009281 | 11.11° C | 88% | 1004.1 hPa | 0 mm | 0 m/s | - | - |
| 1778008981 | 11.67° C | 88% | 1004.1 hPa | 0 mm | 0 m/s | - | - |
| 1778008681 | 11.67° C | 88% | 1004.1 hPa | 0 mm | 0.45 m/s, 315° | - | - |
| 1778008381 | 11.67° C | 88% | 1004.1 hPa | 0 mm | 0.45 m/s, 292° | - | - |
| 1778008081 | 11.67° C | 88% | 1004.1 hPa | 0 mm | 0 m/s | - | - |
| 1778007781 | 11.67° C | 87% | 1004 hPa | 0 mm | 0.89 m/s, 315° | - | - |
* Rain latest hour (hover to see other rain measurements)
** Current wind speed in m/s (hover to see current wind gust speed)